Time;durP1;ratioP1;P1;durP2;ratioP2;P2;SDS_P1;SDS_P2;PMS_P1;PMS_P2;Temp;Humidity;BMP_temperature;BMP_pressure;BME280_temperature;BME280_humidity;BME280_pressure;Samples;Min_cycle;Max_cycle;Signal;HPM_P1;HPM_P2
2022/09/27 00:02:25;;;;;;;9.52;6.00;;;;;;;19.03;61.38;101214.34;5029935;28;20116;-44
2022/09/27 00:04:52;;;;;;;12.55;6.13;;;;;;;18.81;62.00;101208.09;5027840;28;20057;-45
2022/09/27 00:07:18;;;;;;;11.68;6.95;;;;;;;18.70;62.95;101210.66;5030779;28;20087;-44
2022/09/27 00:09:44;;;;;;;13.80;6.45;;;;;;;18.82;62.39;101209.72;5028492;28;20055;-43
2022/09/27 00:12:10;;;;;;;13.30;6.50;;;;;;;18.52;63.18;101202.00;5015710;28;20072;-43
2022/09/27 00:14:36;;;;;;;13.18;7.07;;;;;;;18.41;64.09;101199.13;5025537;28;20401;-43
2022/09/27 00:17:03;;;;;;;11.55;6.75;;;;;;;18.50;64.43;101207.66;5025826;28;20025;-44
2022/09/27 00:19:29;;;;;;;14.25;7.40;;;;;;;18.30;64.50;101210.06;5017619;28;20038;-43
2022/09/27 00:21:56;;;;;;;13.38;8.18;;;;;;;18.16;64.97;101205.00;5016893;28;20022;-44
2022/09/27 00:24:22;;;;;;;12.40;6.78;;;;;;;18.26;65.01;101207.03;5039946;28;20036;-43
2022/09/27 00:26:49;;;;;;;9.80;6.95;;;;;;;18.35;64.92;101194.72;5032732;28;20027;-43
2022/09/27 00:29:17;;;;;;;15.80;7.30;;;;;;;18.00;65.88;101196.88;5031094;28;20091;-43
2022/09/27 00:31:44;;;;;;;11.73;6.90;;;;;;;17.97;66.59;101190.06;5020706;28;20057;-43
2022/09/27 00:34:17;;;;;;;13.73;7.07;;;;;;;18.12;66.65;101193.03;5032396;28;20048;-43
2022/09/27 00:36:43;;;;;;;15.27;7.28;;;;;;;18.31;65.89;101187.31;5027025;28;20026;-44
2022/09/27 00:39:10;;;;;;;11.55;6.47;;;;;;;18.35;64.90;101186.59;5031346;28;20075;-44
2022/09/27 00:41:37;;;;;;;13.85;6.70;;;;;;;18.31;65.23;101185.44;5032169;28;20358;-44
2022/09/27 00:44:25;;;;;;;16.30;6.95;;;;;;;18.40;65.38;101185.84;5018903;28;20061;-44
2022/09/27 00:47:05;;;;;;;16.25;6.80;;;;;;;18.06;65.65;101183.19;5016722;28;20478;-43
2022/09/27 00:49:49;;;;;;;12.38;7.18;;;;;;;18.11;65.98;101183.25;5031469;28;20056;-43
2022/09/27 00:52:33;;;;;;;13.40;7.50;;;;;;;17.89;66.31;101177.75;5043500;28;20477;-43
2022/09/27 00:55:14;;;;;;;12.98;6.68;;;;;;;17.91;67.03;101174.81;5051335;28;20112;-44
2022/09/27 00:57:42;;;;;;;13.40;7.60;;;;;;;17.77;67.79;101174.31;5016744;28;20101;-43
2022/09/27 01:00:11;;;;;;;16.88;7.72;;;;;;;17.84;68.23;101172.25;5051901;28;20025;-45
2022/09/27 01:02:41;;;;;;;17.75;8.57;;;;;;;17.48;68.30;101170.78;5037457;28;20034;-44
2022/09/27 01:05:10;;;;;;;13.02;7.68;;;;;;;17.63;69.07;101175.66;5012692;28;20045;-44
2022/09/27 01:07:36;;;;;;;24.50;8.40;;;;;;;17.58;68.17;101176.38;5012415;28;20492;-43
2022/09/27 01:10:04;;;;;;;19.08;7.30;;;;;;;17.43;68.75;101178.81;5027344;28;20058;-44
2022/09/27 01:12:54;;;;;;;13.57;8.07;;;;;;;17.47;68.75;101179.97;5013006;28;20026;-44
2022/09/27 01:15:56;;;;;;;16.58;7.57;;;;;;;17.26;69.74;101176.06;5029664;28;20119;-43
2022/09/27 01:18:53;;;;;;;17.83;8.85;;;;;;;17.25;69.88;101181.72;5024924;28;20045;-42
2022/09/27 01:21:22;;;;;;;22.58;8.15;;;;;;;17.19;70.04;101182.69;5012482;28;20022;-43
2022/09/27 01:24:13;;;;;;;13.95;8.55;;;;;;;17.32;70.15;101188.66;5013823;28;20113;-43
2022/09/27 01:27:16;;;;;;;13.07;8.02;;;;;;;17.09;70.66;101189.53;5012563;28;20641;-43
2022/09/27 01:30:24;;;;;;;16.48;7.70;;;;;;;16.88;70.26;101188.34;5011781;28;20498;-42
2022/09/27 01:33:05;;;;;;;16.10;8.40;;;;;;;16.95;71.00;101179.28;5017711;28;20037;-43
2022/09/27 01:35:54;;;;;;;13.98;7.68;;;;;;;17.03;70.47;101174.28;5018501;28;20393;-43
2022/09/27 01:38:51;;;;;;;16.30;9.15;;;;;;;17.02;71.23;101171.84;5018382;28;20156;-43
2022/09/27 01:41:51;;;;;;;13.35;8.13;;;;;;;17.09;71.08;101180.63;5018596;28;20041;-43
2022/09/27 01:44:46;;;;;;;14.43;7.90;;;;;;;16.75;71.96;101171.56;5019593;28;20080;-43
2022/09/27 01:47:27;;;;;;;12.95;7.07;;;;;;;16.64;72.18;101184.00;5026168;28;20105;-44
2022/09/27 01:50:31;;;;;;;12.32;7.57;;;;;;;16.87;71.80;101180.44;5037745;28;20033;-43
2022/09/27 01:53:29;;;;;;;15.13;6.43;;;;;;;16.75;72.33;101185.06;5026827;28;20524;-44
2022/09/27 01:55:56;;;;;;;11.07;6.25;;;;;;;16.66;72.50;101190.00;5038045;28;20064;-42
2022/09/27 01:58:46;;;;;;;8.07;5.55;;;;;;;16.70;72.59;101195.75;5037914;28;20022;-44
2022/09/27 02:01:15;;;;;;;9.95;6.25;;;;;;;16.49;73.96;101187.22;5007727;28;20064;-43
2022/09/27 02:03:46;;;;;;;11.77;5.45;;;;;;;16.48;73.78;101190.94;5006471;28;20042;-43
2022/09/27 02:06:20;;;;;;;7.97;5.13;;;;;;;16.30;74.30;101188.38;4998314;28;20046;-43
2022/09/27 02:08:55;;;;;;;8.02;5.43;;;;;;;16.09;75.41;101193.31;4995817;28;20446;-44
2022/09/27 02:11:22;;;;;;;9.70;5.18;;;;;;;16.24;74.65;101187.44;4996887;28;20042;-43
2022/09/27 02:14:08;;;;;;;7.70;4.75;;;;;;;16.08;75.38;101185.44;4987488;28;20027;-45
2022/09/27 02:16:51;;;;;;;9.20;5.03;;;;;;;16.09;75.23;101187.91;4994080;28;20085;-43
2022/09/27 02:19:58;;;;;;;9.68;4.63;;;;;;;16.09;75.68;101192.47;4976345;28;20038;-43
2022/09/27 02:22:34;;;;;;;8.45;5.32;;;;;;;16.00;75.73;101194.72;4989241;28;20156;-44
2022/09/27 02:25:26;;;;;;;7.28;4.20;;;;;;;16.10;75.77;101197.66;4995459;28;20489;-43
2022/09/27 02:27:57;;;;;;;8.32;5.05;;;;;;;15.82;76.30;101200.19;4994368;28;20074;-43
2022/09/27 02:30:23;;;;;;;7.43;4.65;;;;;;;15.87;75.96;101196.81;4989166;28;20038;-43
2022/09/27 02:32:49;;;;;;;5.53;4.35;;;;;;;15.79;76.88;101203.38;5022148;28;20033;-43
2022/09/27 02:35:46;;;;;;;8.23;5.28;;;;;;;15.35;78.89;101202.72;5044208;28;20021;-43
2022/09/27 02:38:12;;;;;;;8.25;5.03;;;;;;;15.39;78.69;101201.22;5033620;28;20040;-43
2022/09/27 02:40:44;;;;;;;6.18;4.85;;;;;;;15.35;79.12;101210.00;5027822;28;20326;-44
2022/09/27 02:43:13;;;;;;;8.32;5.13;;;;;;;15.40;79.25;101202.88;5022352;28;20087;-43
2022/09/27 02:46:07;;;;;;;6.72;4.82;;;;;;;15.52;78.45;101202.91;5020417;28;20026;-43
2022/09/27 02:48:37;;;;;;;7.38;4.95;;;;;;;15.40;78.96;101202.88;5021322;28;20120;-44
2022/09/27 02:51:12;;;;;;;10.07;5.53;;;;;;;15.56;78.21;101209.50;5014491;28;20042;-43
2022/09/27 02:53:52;;;;;;;10.90;5.75;;;;;;;15.37;78.66;101206.00;5034674;28;20021;-42
2022/09/27 02:56:28;;;;;;;11.57;5.70;;;;;;;15.41;78.54;101209.91;5032285;28;20022;-42
2022/09/27 02:58:54;;;;;;;8.63;6.05;;;;;;;15.40;78.71;101212.84;5032944;28;20448;-43
2022/09/27 03:01:35;;;;;;;8.40;5.78;;;;;;;15.41;78.57;101226.09;5022165;28;20486;-43
2022/09/27 03:04:11;;;;;;;8.50;5.68;;;;;;;15.24;79.46;101234.00;5034242;28;20109;-43
2022/09/27 03:06:42;;;;;;;9.30;5.88;;;;;;;15.36;79.05;101236.75;5025643;28;20022;-43
2022/09/27 03:09:19;;;;;;;7.93;5.68;;;;;;;15.41;78.92;101239.56;5021372;28;20037;-44
2022/09/27 03:11:45;;;;;;;9.00;5.57;;;;;;;15.36;78.51;101236.75;5040547;28;20100;-43
2022/09/27 03:14:11;;;;;;;6.80;5.70;;;;;;;15.26;79.08;101248.06;5014230;28;20022;-42
2022/09/27 03:16:38;;;;;;;7.20;5.53;;;;;;;15.19;79.62;101244.63;5014410;28;20049;-43
2022/09/27 03:19:04;;;;;;;9.82;5.68;;;;;;;15.37;78.50;101246.47;5024914;28;20033;-43
2022/09/27 03:21:30;;;;;;;7.85;5.93;;;;;;;15.27;79.06;101263.22;5034177;28;20017;-44
2022/09/27 03:23:56;;;;;;;10.43;5.88;;;;;;;15.10;80.38;101267.53;5030160;28;20026;-42
2022/09/27 03:26:23;;;;;;;8.02;6.50;;;;;;;15.11;80.38;101271.09;5013545;28;20479;-42
2022/09/27 03:28:49;;;;;;;8.13;6.10;;;;;;;15.24;79.47;101279.00;5013833;28;20233;-43
2022/09/27 03:31:15;;;;;;;8.23;5.80;;;;;;;15.16;79.37;101273.94;5013995;28;20486;-43
2022/09/27 03:33:41;;;;;;;7.95;5.55;;;;;;;15.00;79.42;101280.75;5012370;28;20105;-42
2022/09/27 03:36:07;;;;;;;9.55;6.68;;;;;;;15.01;80.00;101285.09;5013661;28;20497;-43
2022/09/27 03:38:33;;;;;;;9.07;6.28;;;;;;;14.91;80.06;101284.78;5013234;28;20124;-42
2022/09/27 03:41:00;;;;;;;7.82;6.00;;;;;;;15.03;79.63;101291.88;5029094;28;20490;-43
2022/09/27 03:43:26;;;;;;;9.63;6.43;;;;;;;14.99;79.24;101288.03;5013361;28;20034;-42
2022/09/27 03:45:52;;;;;;;10.02;5.85;;;;;;;14.93;79.58;101282.69;5025549;28;20033;-42
2022/09/27 03:48:18;;;;;;;8.55;6.03;;;;;;;14.95;79.97;101289.50;5027637;28;20034;-42
2022/09/27 03:50:44;;;;;;;8.45;6.40;;;;;;;14.95;79.97;101300.28;5013618;28;20565;-42
2022/09/27 03:53:11;;;;;;;10.40;6.65;;;;;;;14.85;80.11;101299.16;5018341;28;20038;-42
2022/09/27 03:55:38;;;;;;;7.75;5.65;;;;;;;14.70;80.34;101300.31;5033348;28;20036;-42
2022/09/27 03:58:04;;;;;;;10.80;6.20;;;;;;;14.68;80.39;101309.69;5031806;28;20404;-42
2022/09/27 04:00:35;;;;;;;11.02;5.88;;;;;;;14.64;80.35;101311.97;5032851;28;20030;-42
2022/09/27 04:03:01;;;;;;;8.80;5.45;;;;;;;14.53;80.49;101302.75;5037684;23;20285;-42
2022/09/27 04:05:28;;;;;;;7.22;6.05;;;;;;;14.72;80.03;101313.59;5044093;28;20037;-42
2022/09/27 04:07:55;;;;;;;8.55;5.82;;;;;;;14.62;80.36;101302.50;5051340;28;20025;-42
2022/09/27 04:10:21;;;;;;;8.50;5.38;;;;;;;14.55;80.58;101297.16;5052533;28;20029;-43
2022/09/27 04:12:47;;;;;;;8.52;5.72;;;;;;;14.52;80.88;101301.13;5049638;28;20017;-42
2022/09/27 04:15:14;;;;;;;7.97;5.88;;;;;;;14.52;80.91;101309.19;5032588;28;20021;-42
2022/09/27 04:17:43;;;;;;;6.28;5.25;;;;;;;14.47;81.23;101314.41;5031200;28;20466;-43
2022/09/27 04:20:10;;;;;;;9.88;6.18;;;;;;;14.53;80.72;101316.22;5012464;28;20120;-42
2022/09/27 04:22:42;;;;;;;9.20;5.57;;;;;;;14.52;80.58;101321.84;5012630;28;20022;-45
2022/09/27 04:25:09;;;;;;;8.02;5.53;;;;;;;14.47;80.98;101317.09;5032549;28;20026;-43
2022/09/27 04:27:35;;;;;;;9.75;6.82;;;;;;;14.38;80.84;101315.72;5032513;28;20037;-44
2022/09/27 04:30:03;;;;;;;10.90;6.50;;;;;;;14.46;80.74;101320.00;5031096;28;20091;-42
2022/09/27 04:32:29;;;;;;;9.80;5.95;;;;;;;14.48;80.78;101324.13;5032389;28;20057;-43
2022/09/27 04:37:40;;;;;;;8.02;5.38;;;;;;;14.43;80.50;101320.41;5032603;28;20029;-42
2022/09/27 04:40:07;;;;;;;7.43;5.15;;;;;;;14.36;80.86;101325.88;5030005;28;20064;-42
2022/09/27 04:42:33;;;;;;;11.07;5.78;;;;;;;14.25;81.42;101329.28;5030972;28;20033;-42
2022/09/27 04:44:59;;;;;;;8.57;5.93;;;;;;;14.31;81.43;101332.94;5012516;28;20055;-42
2022/09/27 04:47:25;;;;;;;7.65;5.38;;;;;;;14.30;80.95;101332.13;5022711;28;20477;-44
2022/09/27 04:49:52;;;;;;;8.13;5.43;;;;;;;14.16;80.86;101331.41;5031618;28;20030;-43
2022/09/27 04:52:18;;;;;;;9.07;5.60;;;;;;;14.17;81.70;101332.25;5031880;28;20017;-41
2022/09/27 04:54:44;;;;;;;10.75;6.07;;;;;;;14.21;81.60;101338.81;5031636;28;20478;-41
2022/09/27 04:57:11;;;;;;;7.40;5.20;;;;;;;14.31;81.06;101332.94;5032078;28;20030;-42
2022/09/27 04:59:37;;;;;;;8.90;5.15;;;;;;;14.29;80.88;101345.81;5030236;28;20092;-42
2022/09/27 05:02:04;;;;;;;8.60;5.30;;;;;;;14.20;81.51;101343.38;5032001;28;20026;-41
2022/09/27 05:04:30;;;;;;;10.65;6.22;;;;;;;14.24;81.79;101335.69;5031316;28;20049;-41
2022/09/27 05:06:57;;;;;;;9.68;6.05;;;;;;;14.27;81.47;101336.09;5029863;28;20026;-42
2022/09/27 05:09:23;;;;;;;8.48;5.72;;;;;;;14.21;81.75;101338.81;5031715;28;20116;-45
2022/09/27 05:11:49;;;;;;;10.25;5.50;;;;;;;14.24;81.69;101341.09;5031659;28;20215;-41
2022/09/27 05:14:15;;;;;;;6.80;5.82;;;;;;;14.23;81.48;101339.44;5031546;28;20448;-41
2022/09/27 05:16:42;;;;;;;7.20;5.15;;;;;;;14.21;81.23;101336.13;5031370;28;20119;-40
2022/09/27 05:19:08;;;;;;;8.25;5.18;;;;;;;14.33;80.51;101347.03;5017512;28;20057;-44
2022/09/27 05:21:35;;;;;;;5.60;4.38;;;;;;;14.19;81.19;101335.53;5013897;28;20378;-41
2022/09/27 05:24:01;;;;;;;6.57;4.70;;;;;;;14.27;80.90;101337.97;5031843;28;20029;-40
2022/09/27 05:26:27;;;;;;;6.55;5.03;;;;;;;14.36;80.86;101338.50;5029503;28;20038;-41
2022/09/27 05:28:54;;;;;;;8.43;5.18;;;;;;;14.28;80.59;101331.53;5031345;28;20048;-41
2022/09/27 05:31:20;;;;;;;6.68;4.97;;;;;;;14.34;80.40;101340.59;5030572;28;20037;-41
2022/09/27 05:33:46;;;;;;;10.18;4.85;;;;;;;14.18;80.61;101339.25;5031611;28;20036;-41
2022/09/27 05:36:14;;;;;;;6.15;5.07;;;;;;;14.23;80.29;101340.25;5030354;28;20500;-41
2022/09/27 05:38:41;;;;;;;5.53;4.72;;;;;;;14.18;80.38;101341.97;5031049;28;20045;-42
2022/09/27 05:41:07;;;;;;;8.23;5.30;;;;;;;14.14;79.98;101332.66;5030209;28;20061;-43
2022/09/27 05:43:35;;;;;;;6.20;4.72;;;;;;;14.18;79.90;101344.66;5031361;28;20044;-41
2022/09/27 05:46:02;;;;;;;8.25;4.88;;;;;;;14.14;80.11;101338.03;5029119;28;20026;-42
2022/09/27 05:48:29;;;;;;;7.63;4.88;;;;;;;14.12;80.33;101342.84;5031057;28;20025;-41
2022/09/27 05:50:55;;;;;;;9.13;5.03;;;;;;;14.18;80.30;101345.47;5030051;28;20458;-42
2022/09/27 05:53:22;;;;;;;6.85;4.85;;;;;;;14.10;80.76;101347.59;5031383;28;20033;-41
2022/09/27 05:55:48;;;;;;;7.68;5.15;;;;;;;14.28;80.38;101350.38;5030292;28;20397;-42
2022/09/27 05:58:15;;;;;;;5.60;5.10;;;;;;;14.31;80.93;101351.81;5031330;28;20089;-42
2022/09/27 06:00:42;;;;;;;5.60;4.43;;;;;;;14.39;80.50;101352.38;5029887;28;20072;-41
2022/09/27 06:03:11;;;;;;;5.65;4.88;;;;;;;14.46;80.65;101357.72;5030234;28;20088;-40
2022/09/27 06:05:39;;;;;;;9.57;4.70;;;;;;;14.52;80.03;101357.69;5031078;28;20045;-41
2022/09/27 06:08:08;;;;;;;5.28;4.60;;;;;;;14.65;79.75;101348.66;5030173;28;20025;-41
2022/09/27 06:10:35;;;;;;;6.38;4.07;;;;;;;14.63;79.86;101349.94;5030483;28;20044;-42
2022/09/27 06:13:06;;;;;;;7.40;4.75;;;;;;;14.64;79.37;101348.88;5030226;28;20080;-45
2022/09/27 06:15:33;;;;;;;6.50;4.32;;;;;;;14.65;79.36;101345.13;5030768;28;20386;-41
2022/09/27 06:18:04;;;;;;;6.20;4.63;;;;;;;14.79;78.60;101349.38;5029901;28;20033;-41
2022/09/27 06:20:31;;;;;;;9.02;4.55;;;;;;;14.84;78.30;101352.22;5031820;28;20041;-43
2022/09/27 06:23:23;;;;;;;8.43;4.85;;;;;;;14.71;78.69;101352.34;5034025;28;20022;-41
2022/09/27 06:25:51;;;;;;;5.55;4.45;;;;;;;14.84;77.78;101357.63;5032041;28;20096;-41
2022/09/27 06:28:18;;;;;;;7.50;4.13;;;;;;;14.76;77.71;101358.72;5033723;28;20021;-41
2022/09/27 06:30:49;;;;;;;6.20;4.10;;;;;;;14.84;77.26;101346.03;5034584;28;20105;-41
2022/09/27 06:33:18;;;;;;;7.88;4.60;;;;;;;14.71;77.68;101353.19;5033202;28;20025;-42
2022/09/27 06:35:46;;;;;;;7.85;4.47;;;;;;;14.76;78.00;101349.81;5034345;28;20470;-41
2022/09/27 06:38:14;;;;;;;5.57;4.57;;;;;;;14.86;77.55;101354.69;5034301;28;20079;-41
2022/09/27 06:40:46;;;;;;;6.72;4.32;;;;;;;14.94;77.20;101351.72;5034234;28;20095;-42
2022/09/27 06:43:21;;;;;;;5.88;3.63;;;;;;;14.93;76.63;101356.28;5035610;28;20033;-41
2022/09/27 06:45:47;;;;;;;7.05;3.85;;;;;;;14.84;76.79;101352.22;5034361;28;20028;-43
2022/09/27 06:48:15;;;;;;;7.45;4.50;;;;;;;14.99;76.28;101354.56;5034303;28;20029;-41
2022/09/27 06:50:44;;;;;;;5.07;3.97;;;;;;;15.09;75.56;101345.97;5029329;28;20102;-42
2022/09/27 06:53:11;;;;;;;5.43;4.25;;;;;;;15.15;75.12;101343.19;5025113;28;20478;-42
2022/09/27 06:55:38;;;;;;;9.05;4.03;;;;;;;15.04;75.38;101338.53;5034184;28;20064;-41
2022/09/27 07:00:53;;;;;;;5.70;4.40;;;;;;;15.10;75.14;101334.94;5034605;28;20401;-42
2022/09/27 07:03:25;;;;;;;4.68;3.67;;;;;;;15.00;76.07;101338.19;5033910;28;20037;-44
2022/09/27 07:05:56;;;;;;;6.30;4.25;;;;;;;15.03;76.26;101329.63;5034140;28;20029;-41
2022/09/27 07:08:25;;;;;;;6.75;4.10;;;;;;;14.95;76.52;101329.13;5033494;28;20025;-42
2022/09/27 07:10:54;;;;;;;6.50;4.22;;;;;;;15.11;75.87;101335.81;5033264;28;20049;-43
2022/09/27 07:13:21;;;;;;;5.60;4.13;;;;;;;14.98;76.30;101337.56;5033199;28;20049;-43
2022/09/27 07:15:47;;;;;;;8.38;4.20;;;;;;;14.93;76.18;101345.50;5033545;28;20503;-40
2022/09/27 07:18:13;;;;;;;6.40;4.00;;;;;;;14.91;76.48;101344.91;5030551;28;20052;-44
2022/09/27 07:20:40;;;;;;;5.70;4.38;;;;;;;14.79;76.83;101344.81;5033527;28;20470;-41
2022/09/27 07:23:07;;;;;;;8.35;4.13;;;;;;;14.89;76.61;101330.00;5032867;28;20025;-41
2022/09/27 07:25:36;;;;;;;8.38;4.38;;;;;;;14.78;77.24;101336.97;5032736;28;20099;-41
2022/09/27 07:28:07;;;;;;;6.07;4.18;;;;;;;14.88;76.84;101328.34;5032687;28;20380;-41
2022/09/27 07:30:35;;;;;;;5.10;3.50;;;;;;;14.82;76.71;101327.34;5031911;28;20386;-42
2022/09/27 07:33:04;;;;;;;9.35;4.38;;;;;;;14.67;77.09;101327.72;5032691;28;20029;-40
2022/09/27 07:35:31;;;;;;;8.15;4.63;;;;;;;14.62;77.41;101329.44;5033718;28;20474;-41
2022/09/27 07:37:58;;;;;;;5.63;4.20;;;;;;;14.77;76.78;101335.31;5032582;28;20489;-41
2022/09/27 07:40:25;;;;;;;6.85;4.50;;;;;;;14.77;76.92;101332.63;5033156;28;20485;-41
2022/09/27 07:42:56;;;;;;;8.77;4.07;;;;;;;14.61;76.84;101334.00;5032419;28;20045;-41
2022/09/27 07:45:22;;;;;;;7.22;4.85;;;;;;;14.60;77.13;101331.50;5033188;28;20022;-40
2022/09/27 07:47:49;;;;;;;8.30;4.57;;;;;;;14.58;77.31;101330.91;5031680;28;20503;-41
2022/09/27 07:50:15;;;;;;;9.23;5.10;;;;;;;14.66;77.30;101322.56;5033148;28;20469;-41
2022/09/27 07:52:44;;;;;;;7.80;5.03;;;;;;;14.47;77.49;101314.41;5032283;28;20029;-41
2022/09/27 07:55:12;;;;;;;9.07;4.63;;;;;;;14.40;77.58;101312.81;5033090;28;20473;-40
2022/09/27 07:57:39;;;;;;;7.28;4.63;;;;;;;14.43;78.02;101312.34;5032068;28;20116;-43
2022/09/27 08:00:08;;;;;;;7.60;4.82;;;;;;;14.42;78.45;101314.22;5032717;28;20477;-42
2022/09/27 08:02:34;;;;;;;13.35;4.97;;;;;;;14.37;79.35;101316.75;5032149;28;20029;-42
2022/09/27 08:05:03;;;;;;;9.27;5.22;;;;;;;14.55;78.97;101323.25;5033005;28;20046;-41
2022/09/27 08:07:30;;;;;;;7.53;5.07;;;;;;;14.68;78.40;101332.06;5031907;28;20047;-42
2022/09/27 08:09:56;;;;;;;7.28;5.00;;;;;;;14.60;78.64;101326.94;5032601;28;20030;-42
2022/09/27 08:12:22;;;;;;;8.20;5.55;;;;;;;14.64;78.71;101340.81;5031596;28;20176;-40
2022/09/27 08:14:49;;;;;;;7.53;5.07;;;;;;;14.71;78.08;101349.66;5032645;28;20021;-42
2022/09/27 08:17:16;;;;;;;6.20;4.90;;;;;;;14.63;77.97;101342.66;5031170;28;20091;-42
2022/09/27 08:19:44;;;;;;;9.32;5.43;;;;;;;14.48;78.64;101344.88;5032269;28;20105;-41
2022/09/27 08:22:15;;;;;;;8.15;5.47;;;;;;;14.58;78.82;101344.38;5030562;28;20052;-41
2022/09/27 08:24:41;;;;;;;6.90;4.90;;;;;;;14.67;78.30;101351.97;5032617;28;20025;-42
2022/09/27 08:27:08;;;;;;;5.53;4.35;;;;;;;14.58;78.13;101349.78;5031544;28;20017;-42
2022/09/27 08:29:34;;;;;;;10.13;5.10;;;;;;;14.62;77.60;101346.41;5031322;28;20485;-43
2022/09/27 08:32:01;;;;;;;7.45;4.75;;;;;;;14.60;77.31;101342.28;5031581;28;20049;-42
2022/09/27 08:34:28;;;;;;;9.57;4.53;;;;;;;14.62;77.27;101342.91;5031681;28;20087;-42
2022/09/27 08:36:55;;;;;;;5.65;4.20;;;;;;;14.62;76.88;101345.59;5031283;28;20033;-41
2022/09/27 08:39:21;;;;;;;8.38;4.60;;;;;;;14.53;77.29;101361.19;5030511;28;20029;-43
2022/09/27 08:42:08;;;;;;;8.90;5.43;;;;;;;14.53;77.78;101358.50;5031020;28;20104;-42
2022/09/27 08:44:49;;;;;;;9.90;4.82;;;;;;;14.63;77.29;101353.44;5021082;28;20055;-41
2022/09/27 08:47:24;;;;;;;7.88;4.75;;;;;;;14.67;77.09;101359.22;5020540;28;20470;-41
2022/09/27 08:50:05;;;;;;;6.78;4.72;;;;;;;14.53;77.33;101353.13;5014751;28;20394;-43
2022/09/27 08:53:03;;;;;;;7.18;4.97;;;;;;;14.63;77.47;101347.25;5026027;28;20036;-42
2022/09/27 08:55:37;;;;;;;6.00;5.18;;;;;;;14.56;77.33;101347.31;5025799;28;20052;-41
2022/09/27 08:58:21;;;;;;;6.68;4.80;;;;;;;14.51;77.72;101360.59;5031613;28;20037;-41
2022/09/27 09:00:56;;;;;;;10.25;5.43;;;;;;;14.51;77.64;101352.53;5030985;28;20513;-41
2022/09/27 09:03:25;;;;;;;;;;;;;;;14.52;77.45;101343.38;5030101;28;20064;-41
2022/09/27 09:06:02;;;;;;;6.10;4.57;;;;;;;14.64;77.60;101338.09;5031360;28;19916;-41
2022/09/27 09:08:55;;;;;;;8.35;5.00;;;;;;;14.51;77.76;101334.47;5018898;28;20441;-43
2022/09/27 09:14:51;;;;;;;8.43;5.22;;;;;;;14.62;77.74;101353.69;5031896;28;20093;-42
2022/09/27 09:17:36;;;;;;;6.50;4.90;;;;;;;14.46;77.56;101361.22;5031021;28;20428;-41
2022/09/27 09:20:23;;;;;;;8.02;4.90;;;;;;;14.52;77.44;101362.25;5032178;28;20095;-42
2022/09/27 09:23:23;;;;;;;9.60;4.85;;;;;;;14.53;77.56;101367.41;5030577;28;20091;-41
2022/09/27 09:26:07;;;;;;;7.80;5.28;;;;;;;14.50;77.62;101364.34;5031827;28;20432;-41
2022/09/27 09:29:04;;;;;;;6.95;5.22;;;;;;;14.79;76.48;101369.06;5031082;28;20060;-41
2022/09/27 09:31:38;;;;;;;6.57;4.88;;;;;;;14.68;76.53;101368.97;5030896;28;20078;-41
2022/09/27 09:34:31;;;;;;;7.13;5.15;;;;;;;14.69;76.49;101355.25;5031426;28;20366;-41
2022/09/27 09:37:10;;;;;;;9.82;4.90;;;;;;;14.63;76.65;101353.44;5011818;28;20030;-44
2022/09/27 09:39:50;;;;;;;7.75;4.88;;;;;;;14.65;76.22;101350.53;5014090;28;20377;-41
2022/09/27 09:42:48;;;;;;;6.65;4.78;;;;;;;14.62;75.82;101340.22;5011622;28;20112;-43
2022/09/27 09:45:24;;;;;;;5.10;4.60;;;;;;;14.67;75.51;101348.47;5002213;28;20033;-41
2022/09/27 09:47:53;;;;;;;5.95;4.50;;;;;;;14.60;75.51;101337.72;5024882;28;20812;-41
2022/09/27 09:50:46;;;;;;;8.05;4.80;;;;;;;14.55;75.84;101337.56;5028687;28;20104;-41
2022/09/27 09:53:41;;;;;;;8.68;4.40;;;;;;;14.52;75.14;101344.22;5021942;28;20478;-41
2022/09/27 09:56:17;;;;;;;6.45;4.72;;;;;;;14.56;75.31;101341.09;5027440;28;20072;-41
2022/09/27 09:58:49;;;;;;;7.10;4.65;;;;;;;14.60;75.14;101350.34;5035126;28;20033;-41
2022/09/27 10:01:34;;;;;;;5.40;4.50;;;;;;;14.64;75.02;101338.94;5034779;28;20033;-41
2022/09/27 10:04:01;;;;;;;7.07;4.38;;;;;;;14.48;75.22;101343.00;5035114;28;20095;-42
2022/09/27 10:06:30;;;;;;;6.03;5.15;;;;;;;14.53;75.28;101343.16;5034139;28;20474;-41
2022/09/27 10:08:57;;;;;;;5.70;4.20;;;;;;;14.41;75.71;101352.97;5034877;28;20034;-41
2022/09/27 10:11:41;;;;;;;7.40;4.78;;;;;;;14.46;75.74;101358.53;5034080;28;20104;-41
2022/09/27 10:14:27;;;;;;;7.80;4.90;;;;;;;14.68;74.96;101360.88;5035418;28;20033;-41
2022/09/27 10:17:00;;;;;;;7.57;4.30;;;;;;;14.61;74.84;101360.94;5035039;28;20087;-41
2022/09/27 10:19:32;;;;;;;5.50;4.55;;;;;;;14.65;74.94;101356.75;5033749;28;20097;-41
2022/09/27 10:22:02;;;;;;;5.00;4.30;;;;;;;14.76;74.57;101360.59;5035079;28;20033;-41
2022/09/27 10:24:29;;;;;;;7.13;4.53;;;;;;;14.71;74.40;101355.03;5033707;28;20100;-41
2022/09/27 10:26:59;;;;;;;6.53;4.53;;;;;;;14.69;74.19;101368.72;5034876;28;20095;-42
2022/09/27 10:29:33;;;;;;;6.70;4.63;;;;;;;14.68;74.50;101360.88;5033712;28;20373;-41
2022/09/27 10:32:03;;;;;;;7.18;4.07;;;;;;;14.83;73.99;101355.16;5034935;28;20301;-40
2022/09/27 10:34:39;;;;;;;10.98;5.32;;;;;;;14.84;74.12;101359.50;5034282;28;20032;-41
2022/09/27 10:37:10;;;;;;;7.40;4.63;;;;;;;14.84;74.32;101363.00;5034492;28;20398;-41
2022/09/27 10:39:37;;;;;;;7.78;4.85;;;;;;;14.70;74.63;101365.00;5033287;28;20026;-41
2022/09/27 10:42:19;;;;;;;7.10;4.72;;;;;;;14.83;74.18;101366.75;5023650;28;20473;-41
2022/09/27 10:44:45;;;;;;;8.35;4.90;;;;;;;14.92;73.78;101367.28;5014915;28;20025;-42
2022/09/27 10:47:21;;;;;;;9.07;4.40;;;;;;;14.96;73.57;101353.16;5031963;28;20029;-41
2022/09/27 10:49:51;;;;;;;6.78;4.35;;;;;;;14.95;73.01;101353.38;5028023;28;20030;-42
2022/09/27 10:52:24;;;;;;;7.78;4.72;;;;;;;14.91;72.61;101350.28;5034237;28;20428;-42
2022/09/27 10:54:53;;;;;;;7.28;4.35;;;;;;;14.88;72.87;101358.00;5028535;28;20021;-41
2022/09/27 10:57:23;;;;;;;7.15;4.10;;;;;;;14.90;72.59;101364.00;5014686;28;20029;-41
2022/09/27 10:59:57;;;;;;;7.32;4.13;;;;;;;14.79;72.83;101357.47;5014402;28;20044;-42
2022/09/27 11:02:31;;;;;;;5.70;4.43;;;;;;;14.73;72.90;101361.88;5014145;28;20471;-42
2022/09/27 11:05:12;;;;;;;7.57;4.00;;;;;;;14.73;73.07;101356.47;5013406;28;20064;-45
2022/09/27 11:07:49;;;;;;;7.65;4.88;;;;;;;14.77;72.89;101359.56;5025276;28;20596;-42
2022/09/27 11:10:23;;;;;;;5.72;3.95;;;;;;;14.74;73.05;101362.69;5014452;28;20038;-42
2022/09/27 11:13:14;;;;;;;6.32;4.55;;;;;;;14.76;72.21;101363.28;5014528;28;20060;-42
2022/09/27 11:16:31;;;;;;;6.03;4.63;;;;;;;14.69;72.31;101373.31;5011069;28;20042;-41
2022/09/27 11:19:06;;;;;;;7.00;4.25;;;;;;;14.75;72.41;101378.63;5004378;28;20033;-41
2022/09/27 11:21:33;;;;;;;;;;;;;;;14.75;72.54;101377.81;5014722;28;20143;-42
2022/09/27 11:24:16;;;;;;;5.55;3.72;;;;;;;14.81;72.08;101382.31;5014479;28;20286;-42
2022/09/27 11:27:01;;;;;;;5.57;3.80;;;;;;;14.93;71.89;101377.00;5018656;28;20078;-41
2022/09/27 11:30:19;;;;;;;6.78;4.32;;;;;;;14.96;71.57;101372.03;5024952;28;20033;-41
2022/09/27 11:33:06;;;;;;;5.50;4.05;;;;;;;14.83;71.86;101372.16;4993236;28;20033;-41
2022/09/27 11:35:51;;;;;;;7.28;5.00;;;;;;;14.90;71.83;101380.19;5033964;28;20029;-41
2022/09/27 11:38:53;;;;;;;7.43;4.47;;;;;;;14.96;71.16;101382.81;5033350;28;20036;-41
2022/09/27 11:41:40;;;;;;;6.45;4.05;;;;;;;14.94;71.07;101379.50;5033161;28;20026;-43
2022/09/27 11:44:16;;;;;;;7.13;3.83;;;;;;;14.82;71.79;101380.44;5033817;28;20319;-41
2022/09/27 11:46:57;;;;;;;6.82;3.90;;;;;;;14.86;70.94;101387.88;5015342;28;20030;-41
2022/09/27 11:49:52;;;;;;;4.65;3.95;;;;;;;14.79;71.45;101395.19;5029090;28;20083;-41
2022/09/27 11:52:35;;;;;;;6.47;3.92;;;;;;;14.83;70.69;101391.03;5033084;28;20036;-42
2022/09/27 11:55:17;;;;;;;6.38;4.40;;;;;;;14.91;70.48;101392.59;5033397;28;20075;-42
2022/09/27 11:58:18;;;;;;;7.60;4.00;;;;;;;14.84;70.53;101387.28;5033519;28;20524;-41
2022/09/27 12:01:09;;;;;;;4.63;3.85;;;;;;;14.65;71.36;101394.47;5020205;23;20100;-41
2022/09/27 12:03:42;;;;;;;5.30;3.72;;;;;;;14.79;70.91;101400.59;5012888;28;20417;-41